Time;durP1;ratioP1;P1;durP2;ratioP2;P2;SDS_P1;SDS_P2;PMS_P1;PMS_P2;Temp;Humidity;BMP_temperature;BMP_pressure;BME280_temperature;BME280_humidity;BME280_pressure;Samples;Min_cycle;Max_cycle;Signal;HPM_P1;HPM_P2
2023/10/25 00:01:29;;;;;;;8.23;1.65;;;9.00;99.90;;;;;;5035795;28;20091;-76
2023/10/25 00:03:55;;;;;;;6.68;2.08;;;9.00;99.90;;;;;;5034543;28;20025;-74
2023/10/25 00:06:20;;;;;;;4.28;1.65;;;9.00;99.90;;;;;;5035514;28;20128;-76
2023/10/25 00:08:46;;;;;;;6.38;2.05;;;8.90;99.90;;;;;;5034151;28;20028;-76
2023/10/25 00:11:11;;;;;;;13.70;1.88;;;8.90;99.90;;;;;;5035335;28;20029;-76
2023/10/25 00:13:37;;;;;;;3.47;1.60;;;8.80;99.90;;;;;;5035446;28;20029;-76
2023/10/25 00:16:03;;;;;;;8.82;2.08;;;8.80;99.90;;;;;;5035240;28;20148;-75
2023/10/25 00:18:29;;;;;;;4.72;2.03;;;8.80;99.90;;;;;;5035319;28;20032;-76
2023/10/25 00:20:55;;;;;;;4.63;1.80;;;8.70;99.90;;;;;;5035726;28;20046;-76
2023/10/25 00:23:21;;;;;;;9.15;2.83;;;8.70;99.90;;;;;;5035094;28;20047;-76
2023/10/25 00:25:48;;;;;;;7.72;2.83;;;8.60;99.90;;;;;;5035077;28;20497;-76
2023/10/25 00:28:14;;;;;;;6.60;2.25;;;8.70;99.90;;;;;;5035206;28;20057;-75
2023/10/25 00:30:40;;;;;;;9.23;2.58;;;8.70;99.90;;;;;;5033863;28;20048;-75
2023/10/25 00:33:06;;;;;;;7.45;2.30;;;8.60;99.90;;;;;;5034074;28;20028;-77
2023/10/25 00:35:31;;;;;;;4.32;2.17;;;8.70;99.90;;;;;;5035289;28;20029;-74
2023/10/25 00:37:57;;;;;;;4.22;2.47;;;8.70;99.90;;;;;;5032523;28;20060;-75
2023/10/25 00:40:23;;;;;;;11.07;2.20;;;8.70;99.90;;;;;;5033654;28;20036;-76
2023/10/25 00:42:49;;;;;;;5.85;2.50;;;8.70;99.90;;;;;;5033928;28;20466;-77
2023/10/25 00:45:14;;;;;;;8.20;2.53;;;8.60;99.90;;;;;;5035476;28;20037;-76
2023/10/25 00:47:41;;;;;;;5.20;1.98;;;8.90;99.90;;;;;;5035292;28;20025;-75
2023/10/25 00:50:09;;;;;;;6.10;2.00;;;8.60;99.90;;;;;;5033425;28;20500;-75
2023/10/25 00:52:36;;;;;;;3.60;1.52;;;8.60;99.90;;;;;;5033369;28;20087;-75
2023/10/25 00:55:02;;;;;;;19.05;3.03;;;8.60;99.90;;;;;;5034504;28;20025;-75
2023/10/25 00:57:29;;;;;;;5.03;2.33;;;8.60;99.90;;;;;;5033391;28;20056;-75
2023/10/25 00:59:54;;;;;;;7.40;2.28;;;8.60;99.90;;;;;;5034948;28;20026;-75
2023/10/25 01:02:21;;;;;;;5.47;2.25;;;8.50;99.90;;;;;;5034282;28;20033;-75
2023/10/25 01:04:46;;;;;;;9.48;2.75;;;8.50;99.90;;;;;;5034277;28;20389;-76
2023/10/25 01:07:12;;;;;;;9.60;2.10;;;8.50;99.90;;;;;;5034409;28;20040;-76
2023/10/25 01:09:37;;;;;;;9.60;2.33;;;8.50;99.90;;;;;;5034189;28;20038;-75
2023/10/25 01:12:04;;;;;;;3.60;1.80;;;8.50;99.90;;;;;;5034192;28;20025;-75
2023/10/25 01:14:33;;;;;;;5.35;2.25;;;8.50;99.90;;;;;;5032944;28;20017;-76
2023/10/25 01:16:58;;;;;;;6.90;1.80;;;8.40;99.90;;;;;;5034020;28;20025;-76
2023/10/25 01:19:24;;;;;;;9.27;2.38;;;8.40;99.90;;;;;;5034069;28;20067;-75
2023/10/25 01:21:50;;;;;;;4.32;1.92;;;8.40;99.90;;;;;;5034032;28;20022;-75
2023/10/25 01:24:16;;;;;;;7.38;2.08;;;8.30;99.90;;;;;;5034049;28;20108;-75
2023/10/25 01:26:41;;;;;;;7.80;1.55;;;8.30;99.90;;;;;;5033990;28;20068;-76
2023/10/25 01:29:07;;;;;;;4.85;2.22;;;8.30;99.90;;;;;;5033859;28;20053;-76
2023/10/25 01:31:32;;;;;;;4.35;1.60;;;8.20;99.90;;;;;;5032516;28;20029;-76
2023/10/25 01:33:59;;;;;;;7.47;2.58;;;8.10;99.90;;;;;;5034462;28;20113;-76
2023/10/25 01:36:24;;;;;;;12.65;2.13;;;8.10;99.90;;;;;;5032488;28;20021;-76
2023/10/25 01:38:50;;;;;;;5.70;2.40;;;8.00;99.90;;;;;;5033705;28;20028;-75
2023/10/25 01:41:18;;;;;;;8.15;2.30;;;8.00;99.90;;;;;;5033654;28;20026;-75
2023/10/25 01:43:44;;;;;;;4.22;1.83;;;7.90;99.90;;;;;;5033066;28;20021;-75
2023/10/25 01:46:10;;;;;;;8.30;2.30;;;7.80;99.90;;;;;;5033460;28;20022;-75
2023/10/25 01:48:38;;;;;;;6.07;2.05;;;7.80;99.90;;;;;;5031897;28;20018;-75
2023/10/25 01:51:09;;;;;;;7.45;2.03;;;8.40;99.90;;;;;;5032275;28;20028;-76
2023/10/25 01:53:35;;;;;;;5.60;2.38;;;7.70;99.90;;;;;;5033390;28;20034;-76
2023/10/25 01:56:02;;;;;;;8.63;2.38;;;7.70;99.90;;;;;;5033282;28;20021;-75
2023/10/25 01:58:27;;;;;;;5.95;1.90;;;7.70;99.90;;;;;;5033574;28;20056;-75
2023/10/25 02:00:53;;;;;;;13.02;2.58;;;7.60;99.90;;;;;;5033485;28;20025;-76
2023/10/25 02:03:22;;;;;;;3.22;1.65;;;7.60;99.90;;;;;;5033427;28;20388;-75
2023/10/25 02:05:47;;;;;;;5.22;2.63;;;7.60;99.90;;;;;;5033289;28;20103;-76
2023/10/25 02:08:13;;;;;;;3.83;1.80;;;7.50;99.90;;;;;;5033975;28;20074;-76
2023/10/25 02:10:38;;;;;;;7.63;2.40;;;7.60;99.90;;;;;;5033341;28;20032;-76
2023/10/25 02:13:04;;;;;;;5.95;2.17;;;7.60;99.90;;;;;;5033118;28;20473;-75
2023/10/25 02:15:29;;;;;;;6.30;1.30;;;7.50;99.90;;;;;;5031863;28;20018;-76
2023/10/25 02:17:55;;;;;;;3.30;1.48;;;7.50;99.90;;;;;;5033164;28;20485;-76
2023/10/25 02:20:20;;;;;;;8.68;1.70;;;7.50;99.90;;;;;;5033686;28;20022;-75
2023/10/25 02:22:46;;;;;;;2.67;1.25;;;7.50;99.90;;;;;;5031685;28;20042;-75
2023/10/25 02:25:11;;;;;;;4.82;1.80;;;7.50;99.90;;;;;;5032286;28;20013;-76
2023/10/25 02:27:37;;;;;;;4.68;1.63;;;7.50;99.90;;;;;;5031899;28;20017;-75
2023/10/25 02:30:04;;;;;;;15.15;2.08;;;7.40;99.90;;;;;;5033072;28;20096;-75
2023/10/25 02:32:30;;;;;;;6.50;1.50;;;7.40;99.90;;;;;;5033075;28;20021;-75
2023/10/25 02:34:55;;;;;;;8.05;2.90;;;7.80;99.90;;;;;;5031802;28;20025;-75
2023/10/25 02:37:24;;;;;;;5.47;1.38;;;7.40;99.90;;;;;;5032981;28;20048;-76
2023/10/25 02:39:49;;;;;;;8.23;1.38;;;7.40;99.90;;;;;;5032911;28;20032;-76
2023/10/25 02:42:18;;;;;;;6.15;1.60;;;7.40;99.90;;;;;;5033046;28;20100;-75
2023/10/25 02:44:46;;;;;;;6.38;1.60;;;7.40;99.90;;;;;;5032959;28;20083;-75
2023/10/25 02:47:11;;;;;;;6.90;1.58;;;7.40;99.90;;;;;;5032878;28;20080;-75
2023/10/25 02:49:37;;;;;;;5.75;1.45;;;7.40;99.90;;;;;;5032865;28;20033;-75
2023/10/25 02:52:03;;;;;;;5.28;1.88;;;7.40;99.90;;;;;;5032913;28;20098;-76
2023/10/25 02:54:28;;;;;;;7.25;1.50;;;7.40;99.90;;;;;;5032865;28;20124;-76
2023/10/25 02:56:55;;;;;;;8.75;2.03;;;7.30;99.90;;;;;;5032688;28;20026;-76
2023/10/25 02:59:20;;;;;;;8.55;1.60;;;7.40;99.90;;;;;;5032745;28;20477;-75
2023/10/25 03:01:46;;;;;;;11.70;1.95;;;7.30;99.90;;;;;;5035019;28;20029;-75
2023/10/25 03:04:11;;;;;;;12.85;1.98;;;8.30;99.90;;;;;;5036570;28;20037;-75
2023/10/25 03:06:37;;;;;;;6.40;1.73;;;7.30;99.90;;;;;;5036363;28;20041;-75
2023/10/25 03:09:03;;;;;;;9.30;1.85;;;7.30;99.90;;;;;;5035350;28;20047;-75
2023/10/25 03:11:28;;;;;;;5.85;1.45;;;7.30;99.90;;;;;;5036385;28;20441;-76
2023/10/25 03:13:54;;;;;;;6.05;1.48;;;7.30;99.90;;;;;;5036351;28;20022;-75
2023/10/25 03:16:19;;;;;;;3.05;1.27;;;7.30;99.90;;;;;;5035020;28;20411;-75
2023/10/25 03:18:45;;;;;;;5.65;1.50;;;7.30;99.90;;;;;;5036398;28;20076;-75
2023/10/25 03:21:10;;;;;;;7.68;1.95;;;7.30;99.90;;;;;;5035098;28;20018;-75
2023/10/25 03:23:36;;;;;;;4.03;1.30;;;7.20;99.90;;;;;;5036215;28;20097;-75
2023/10/25 03:26:06;;;;;;;5.30;1.20;;;7.20;99.90;;;;;;5036674;28;20033;-76
2023/10/25 03:28:31;;;;;;;3.60;1.10;;;7.20;99.90;;;;;;5036170;28;20033;-75
2023/10/25 03:30:57;;;;;;;8.88;1.10;;;7.20;99.90;;;;;;5036167;28;20120;-76
2023/10/25 03:33:24;;;;;;;4.03;1.83;;;7.10;99.90;;;;;;5034776;28;20493;-75
2023/10/25 03:35:55;;;;;;;5.25;1.60;;;7.20;99.90;;;;;;5035927;28;20018;-76
2023/10/25 03:38:21;;;;;;;3.55;0.88;;;7.20;99.90;;;;;;5034661;28;20520;-76
2023/10/25 03:40:47;;;;;;;6.15;1.27;;;7.20;99.90;;;;;;5034561;28;20021;-76
2023/10/25 03:43:13;;;;;;;4.05;1.42;;;7.20;99.90;;;;;;5035880;28;20104;-76
2023/10/25 03:45:38;;;;;;;2.92;1.30;;;7.20;99.90;;;;;;5036188;28;20599;-76
2023/10/25 03:48:04;;;;;;;5.95;1.30;;;7.10;99.90;;;;;;5035708;28;20059;-75
2023/10/25 03:50:29;;;;;;;10.57;1.52;;;7.10;99.90;;;;;;5035652;28;20021;-76
2023/10/25 03:52:55;;;;;;;5.50;1.08;;;7.20;99.90;;;;;;5034382;28;20112;-76
2023/10/25 03:55:21;;;;;;;4.50;0.75;;;7.10;99.90;;;;;;5034307;28;20477;-76
2023/10/25 03:57:47;;;;;;;9.45;1.65;;;7.10;99.90;;;;;;5035596;28;20096;-76
2023/10/25 04:00:13;;;;;;;7.68;1.90;;;7.00;99.90;;;;;;5035437;28;20022;-75
2023/10/25 04:02:39;;;;;;;12.15;1.33;;;7.10;99.90;;;;;;5035656;28;20029;-75
2023/10/25 04:05:05;;;;;;;7.85;1.63;;;7.10;99.90;;;;;;5034071;28;20444;-75
2023/10/25 04:07:30;;;;;;;3.58;0.98;;;7.10;99.90;;;;;;5035765;28;20059;-75
2023/10/25 04:09:56;;;;;;;7.95;1.40;;;7.50;99.90;;;;;;5035662;28;20026;-76
2023/10/25 04:12:21;;;;;;;7.72;1.20;;;8.20;99.90;;;;;;5035354;28;20026;-75
2023/10/25 04:14:47;;;;;;;4.20;1.27;;;7.10;99.90;;;;;;5035638;28;20045;-75
2023/10/25 04:17:12;;;;;;;5.07;1.33;;;7.00;99.90;;;;;;5035387;28;20025;-75
2023/10/25 04:19:39;;;;;;;6.05;1.42;;;7.10;99.90;;;;;;5035677;28;20021;-76
2023/10/25 04:22:05;;;;;;;2.55;0.95;;;7.10;99.90;;;;;;5035570;28;20029;-76
2023/10/25 04:24:31;;;;;;;2.97;1.30;;;7.40;99.90;;;;;;5033990;28;20033;-75
2023/10/25 04:26:56;;;;;;;9.63;1.15;;;7.10;99.90;;;;;;5035206;28;20029;-75
2023/10/25 04:29:22;;;;;;;3.58;1.20;;;7.10;99.90;;;;;;5035806;28;20026;-76
2023/10/25 04:31:47;;;;;;;4.10;1.30;;;7.10;99.90;;;;;;5034133;28;20028;-75
2023/10/25 04:34:13;;;;;;;3.25;1.02;;;7.00;99.90;;;;;;5035556;28;20032;-75
2023/10/25 04:36:39;;;;;;;7.40;1.52;;;7.00;99.90;;;;;;5035320;28;20432;-75
2023/10/25 04:39:04;;;;;;;7.20;0.63;;;7.00;99.90;;;;;;5035711;28;20018;-76
2023/10/25 04:41:31;;;;;;;3.45;0.98;;;7.10;99.90;;;;;;5033676;28;20053;-75
2023/10/25 04:43:57;;;;;;;5.63;0.70;;;7.10;99.90;;;;;;5034736;28;20104;-76
2023/10/25 04:46:22;;;;;;;3.42;0.60;;;7.10;99.90;;;;;;5033725;28;20056;-75
2023/10/25 04:48:48;;;;;;;4.05;0.95;;;7.10;99.90;;;;;;5033356;28;20030;-76
2023/10/25 04:51:17;;;;;;;8.50;0.93;;;7.20;99.90;;;;;;5033406;28;20021;-75
2023/10/25 04:53:44;;;;;;;5.18;1.35;;;7.20;99.90;;;;;;5034565;28;20033;-76
2023/10/25 04:56:09;;;;;;;6.47;1.08;;;7.30;99.90;;;;;;5033126;28;20021;-75
2023/10/25 04:58:35;;;;;;;10.82;1.67;;;7.30;99.90;;;;;;5033179;28;20124;-75
2023/10/25 05:01:09;;;;;;;7.80;1.20;;;7.40;99.90;;;;;;5033279;28;20014;-75
2023/10/25 05:03:38;;;;;;;3.85;1.48;;;7.50;99.90;;;;;;5033034;28;20485;-75
2023/10/25 05:06:06;;;;;;;4.53;1.17;;;7.50;99.90;;;;;;5032888;28;20075;-75
2023/10/25 05:08:31;;;;;;;3.13;1.10;;;7.60;99.90;;;;;;5033894;28;20026;-75
2023/10/25 05:11:01;;;;;;;8.48;1.23;;;7.60;99.90;;;;;;5033043;28;20038;-75
2023/10/25 05:13:27;;;;;;;6.25;1.65;;;7.70;99.90;;;;;;5032798;28;20025;-75
2023/10/25 05:15:53;;;;;;;7.00;1.80;;;7.70;99.90;;;;;;5032999;28;20362;-76
2023/10/25 05:18:19;;;;;;;10.10;1.38;;;7.70;99.90;;;;;;5034086;28;20499;-76
2023/10/25 05:20:44;;;;;;;5.38;1.58;;;7.70;99.90;;;;;;5034508;28;20028;-75
2023/10/25 05:23:11;;;;;;;6.60;1.23;;;7.70;99.90;;;;;;5033330;28;20370;-75
2023/10/25 05:25:37;;;;;;;4.05;1.35;;;7.80;99.90;;;;;;5034624;28;20029;-76
2023/10/25 05:28:02;;;;;;;5.30;1.10;;;7.80;99.90;;;;;;5032758;28;20022;-76
2023/10/25 05:30:28;;;;;;;6.90;1.35;;;7.80;99.90;;;;;;5034078;28;20504;-76
2023/10/25 05:32:59;;;;;;;5.82;1.48;;;7.80;99.90;;;;;;5033822;28;20075;-76
2023/10/25 05:35:25;;;;;;;5.43;1.27;;;7.80;99.90;;;;;;5034138;28;20017;-76
2023/10/25 05:37:51;;;;;;;5.05;1.63;;;7.80;99.90;;;;;;5032744;28;20033;-76
2023/10/25 05:40:17;;;;;;;6.28;1.25;;;7.80;99.90;;;;;;5033575;28;20500;-76
2023/10/25 05:42:49;;;;;;;5.80;1.48;;;7.80;99.90;;;;;;5034309;28;20025;-76
2023/10/25 05:45:15;;;;;;;2.00;1.17;;;7.90;99.90;;;;;;5033726;28;20025;-76
2023/10/25 05:47:41;;;;;;;3.50;1.15;;;8.40;99.90;;;;;;5032470;28;20021;-76
2023/10/25 05:50:10;;;;;;;7.03;1.33;;;7.90;99.90;;;;;;5033676;28;20041;-76
2023/10/25 05:52:35;;;;;;;6.65;1.80;;;7.90;99.90;;;;;;5033717;28;20440;-76
2023/10/25 05:55:01;;;;;;;10.27;1.92;;;;;;;;;;5033557;28;20093;-76
2023/10/25 05:57:27;;;;;;;5.22;1.30;;;7.90;99.90;;;;;;5033553;28;20484;-76
2023/10/25 05:59:53;;;;;;;3.22;1.63;;;7.90;99.90;;;;;;5032198;28;20020;-76
2023/10/25 06:02:22;;;;;;;7.80;2.08;;;8.00;99.90;;;;;;5033527;28;20029;-76
2023/10/25 06:04:49;;;;;;;9.02;2.30;;;7.90;99.90;;;;;;5032165;28;20022;-76
2023/10/25 06:07:15;;;;;;;8.73;1.27;;;8.00;99.90;;;;;;5033471;28;20044;-76
2023/10/25 06:09:41;;;;;;;5.13;2.28;;;8.00;99.90;;;;;;5033726;28;20039;-74
2023/10/25 06:12:08;;;;;;;4.65;2.10;;;8.00;99.90;;;;;;5032449;28;20038;-76
2023/10/25 06:14:34;;;;;;;5.22;1.40;;;8.00;99.90;;;;;;5032327;28;20384;-76
2023/10/25 06:17:00;;;;;;;8.50;1.65;;;8.00;99.90;;;;;;5033609;28;20074;-76
2023/10/25 06:19:26;;;;;;;4.45;0.90;;;8.00;99.90;;;;;;5033569;28;20159;-76
2023/10/25 06:21:53;;;;;;;6.32;1.30;;;8.10;99.90;;;;;;5033496;28;20081;-75
2023/10/25 06:24:18;;;;;;;4.32;1.58;;;8.10;99.90;;;;;;5034070;28;20101;-76
2023/10/25 06:26:44;;;;;;;2.60;1.20;;;8.10;99.90;;;;;;5033732;28;20033;-76
2023/10/25 06:29:10;;;;;;;7.38;1.73;;;8.20;99.90;;;;;;5033239;28;20504;-75
2023/10/25 06:31:35;;;;;;;6.28;0.93;;;8.20;99.90;;;;;;5033086;28;20022;-75
2023/10/25 06:34:01;;;;;;;8.80;1.23;;;8.20;99.90;;;;;;5032034;28;20028;-78
2023/10/25 06:36:27;;;;;;;6.85;2.00;;;8.20;99.90;;;;;;5036784;28;20513;-76
2023/10/25 06:38:53;;;;;;;5.82;1.30;;;8.20;99.90;;;;;;5036198;28;20017;-75
2023/10/25 06:41:22;;;;;;;5.15;1.45;;;8.40;99.90;;;;;;5035699;28;20604;-76
2023/10/25 06:43:48;;;;;;;7.75;1.52;;;8.30;99.90;;;;;;5037156;28;20021;-75
2023/10/25 06:46:14;;;;;;;6.07;2.55;;;8.40;99.90;;;;;;5035685;28;20052;-76
2023/10/25 06:48:40;;;;;;;5.40;1.80;;;8.40;99.90;;;;;;5035966;28;20030;-75
2023/10/25 06:51:07;;;;;;;5.70;1.30;;;8.40;99.90;;;;;;5037315;28;20056;-76
2023/10/25 06:53:33;;;;;;;4.15;1.27;;;8.40;99.90;;;;;;5035600;28;20071;-75
2023/10/25 06:55:59;;;;;;;7.95;1.63;;;8.40;99.90;;;;;;5036832;28;20045;-76
2023/10/25 06:58:26;;;;;;;8.30;1.17;;;8.40;99.90;;;;;;5036787;28;20071;-75
2023/10/25 07:00:57;;;;;;;4.40;1.45;;;8.40;99.90;;;;;;5035603;28;20022;-75
2023/10/25 07:03:31;;;;;;;4.25;1.52;;;8.50;99.90;;;;;;5035444;28;20025;-76
2023/10/25 07:05:59;;;;;;;7.05;1.05;;;8.50;99.90;;;;;;5035129;28;20030;-75
2023/10/25 07:08:25;;;;;;;7.28;1.42;;;8.50;99.90;;;;;;5037178;28;20060;-76
2023/10/25 07:10:50;;;;;;;5.82;1.10;;;8.60;99.90;;;;;;5035330;28;20477;-75
2023/10/25 07:13:16;;;;;;;8.98;1.80;;;8.60;99.90;;;;;;5035274;28;20017;-76
2023/10/25 07:15:41;;;;;;;3.40;0.90;;;8.60;99.90;;;;;;5035097;28;20021;-76
2023/10/25 07:18:07;;;;;;;4.35;1.10;;;8.60;99.90;;;;;;5036623;28;20501;-74
2023/10/25 07:20:33;;;;;;;3.97;1.10;;;8.70;99.90;;;;;;5036300;28;20377;-76
2023/10/25 07:23:00;;;;;;;6.18;1.65;;;8.70;99.90;;;;;;5036456;28;20060;-76
2023/10/25 07:25:26;;;;;;;7.35;1.17;;;8.70;99.90;;;;;;5036995;28;20092;-76
2023/10/25 07:27:51;;;;;;;4.93;1.65;;;8.80;99.90;;;;;;5036571;28;20033;-76
2023/10/25 07:30:17;;;;;;;4.00;1.33;;;8.80;99.90;;;;;;5035301;28;20047;-76
2023/10/25 07:32:42;;;;;;;6.35;1.08;;;8.90;99.90;;;;;;5035001;28;20079;-75
2023/10/25 07:35:08;;;;;;;6.40;1.10;;;8.90;99.90;;;;;;5036066;28;20096;-75
2023/10/25 07:37:34;;;;;;;7.03;1.35;;;8.90;99.90;;;;;;5036548;28;20051;-75
2023/10/25 07:39:59;;;;;;;4.50;1.20;;;8.90;99.90;;;;;;5036204;28;20014;-75
2023/10/25 07:42:25;;;;;;;9.50;1.80;;;8.90;99.90;;;;;;5035956;28;20025;-76
2023/10/25 07:44:50;;;;;;;3.03;1.10;;;9.00;99.90;;;;;;5034819;28;20393;-75
2023/10/25 07:47:17;;;;;;;7.93;1.30;;;9.00;99.90;;;;;;5035726;28;20056;-76
2023/10/25 07:49:46;;;;;;;5.38;1.58;;;9.00;99.90;;;;;;5036490;28;20040;-75
2023/10/25 07:52:12;;;;;;;;;;;9.10;99.90;;;;;;5036167;28;20022;-75
2023/10/25 07:54:37;;;;;;;4.97;1.60;;;9.10;99.90;;;;;;5035959;28;20262;-76
2023/10/25 07:57:03;;;;;;;9.00;0.90;;;9.10;99.90;;;;;;5035955;28;20108;-75
2023/10/25 07:59:29;;;;;;;8.90;1.65;;;9.10;99.90;;;;;;5036334;28;20432;-75
2023/10/25 08:02:00;;;;;;;6.10;1.60;;;9.50;99.90;;;;;;5035778;28;20030;-75
2023/10/25 08:04:25;;;;;;;5.05;1.05;;;9.20;99.90;;;;;;5036293;28;20465;-75
2023/10/25 08:06:53;;;;;;;3.67;1.70;;;9.20;99.90;;;;;;5035789;28;20034;-76
2023/10/25 08:09:18;;;;;;;2.35;0.93;;;9.30;99.90;;;;;;5035475;28;20108;-76
2023/10/25 08:11:44;;;;;;;5.63;1.15;;;9.30;99.90;;;;;;5035590;28;20053;-76
2023/10/25 08:14:09;;;;;;;4.35;1.00;;;9.40;99.90;;;;;;5035504;28;20079;-76
2023/10/25 08:16:42;;;;;;;2.78;1.10;;;9.40;99.90;;;;;;5034569;28;20092;-76
2023/10/25 08:19:08;;;;;;;3.65;0.95;;;9.40;99.90;;;;;;5034244;28;20528;-76
2023/10/25 08:21:35;;;;;;;6.53;1.10;;;9.50;99.90;;;;;;5034135;28;20028;-76
2023/10/25 08:24:02;;;;;;;6.05;1.45;;;9.50;99.90;;;;;;5035317;28;20477;-76
2023/10/25 08:26:28;;;;;;;3.75;1.00;;;9.50;99.90;;;;;;5035749;28;20021;-76
2023/10/25 08:28:54;;;;;;;3.75;0.93;;;9.50;99.90;;;;;;5035400;28;20033;-76
2023/10/25 08:31:19;;;;;;;3.92;0.70;;;9.50;99.90;;;;;;5035065;28;20370;-76
2023/10/25 08:33:45;;;;;;;2.95;1.20;;;9.50;99.90;;;;;;5033748;28;20025;-76
2023/10/25 08:36:11;;;;;;;5.65;1.13;;;9.50;99.90;;;;;;5034966;28;20017;-76
2023/10/25 08:38:37;;;;;;;4.70;0.90;;;9.50;99.90;;;;;;5035031;28;20031;-76
2023/10/25 08:41:07;;;;;;;2.75;0.77;;;9.50;99.90;;;;;;5035391;28;20028;-76
2023/10/25 08:43:34;;;;;;;3.75;0.85;;;9.50;99.90;;;;;;5035626;28;20080;-76
2023/10/25 08:46:03;;;;;;;3.50;0.57;;;9.50;99.90;;;;;;5034886;28;20036;-76
2023/10/25 08:48:29;;;;;;;5.65;1.38;;;9.50;99.90;;;;;;5034786;28;20026;-76
2023/10/25 08:50:55;;;;;;;3.30;1.10;;;9.50;99.90;;;;;;5033587;28;20396;-75
2023/10/25 08:53:25;;;;;;;10.25;1.08;;;9.50;99.90;;;;;;5032221;28;20031;-76
2023/10/25 08:55:52;;;;;;;4.65;0.85;;;9.50;99.90;;;;;;5033998;28;20056;-76
2023/10/25 08:58:19;;;;;;;1.85;0.88;;;9.50;99.90;;;;;;5033790;28;20100;-77
2023/10/25 09:00:45;;;;;;;3.88;1.05;;;9.50;99.90;;;;;;5033605;28;20025;-76
2023/10/25 09:03:33;;;;;;;4.88;0.68;;;9.50;99.90;;;;;;5034729;28;20021;-76
2023/10/25 09:06:03;;;;;;;1.88;0.70;;;9.60;99.90;;;;;;5033042;28;20454;-76
2023/10/25 09:08:30;;;;;;;5.43;1.42;;;9.60;99.90;;;;;;5034356;28;20041;-76
2023/10/25 09:11:03;;;;;;;6.35;0.68;;;9.60;99.90;;;;;;5034509;28;20025;-76
2023/10/25 09:13:29;;;;;;;2.25;0.98;;;9.60;99.90;;;;;;5033220;28;20025;-76
2023/10/25 09:16:09;;;;;;;5.90;1.30;;;9.70;99.90;;;;;;5033149;28;20021;-76
2023/10/25 09:18:35;;;;;;;2.90;1.15;;;9.70;99.90;;;;;;5034517;28;20033;-76
2023/10/25 09:21:02;;;;;;;4.15;1.40;;;9.70;99.90;;;;;;5033099;28;20021;-75
2023/10/25 09:23:28;;;;;;;4.88;1.08;;;9.70;99.90;;;;;;5034236;28;20029;-76
2023/10/25 09:26:15;;;;;;;5.40;1.10;;;9.70;99.90;;;;;;5034159;28;20029;-76
2023/10/25 09:28:41;;;;;;;6.72;1.60;;;9.80;99.90;;;;;;5034119;28;20025;-76
2023/10/25 09:31:19;;;;;;;1.90;1.05;;;9.80;99.90;;;;;;5033019;28;20396;-76
2023/10/25 09:33:47;;;;;;;11.07;1.13;;;9.80;99.90;;;;;;5032999;28;20026;-76
2023/10/25 09:36:13;;;;;;;4.95;1.05;;;9.80;99.90;;;;;;5034547;28;20432;-76
2023/10/25 09:38:38;;;;;;;3.25;1.20;;;9.80;99.90;;;;;;5033952;28;20029;-76
2023/10/25 09:41:11;;;;;;;4.22;1.00;;;9.80;99.90;;;;;;5032660;28;20029;-75
2023/10/25 09:43:40;;;;;;;8.57;0.80;;;9.80;99.90;;;;;;5034014;28;20064;-76
2023/10/25 09:46:09;;;;;;;4.22;1.30;;;9.70;99.90;;;;;;5033869;28;20028;-76
2023/10/25 09:48:37;;;;;;;6.72;1.48;;;9.70;99.90;;;;;;5033710;28;20067;-76
2023/10/25 09:51:06;;;;;;;6.95;1.10;;;9.70;99.90;;;;;;5034019;28;20112;-76
2023/10/25 09:53:41;;;;;;;3.22;0.77;;;9.80;99.90;;;;;;5032474;28;20459;-75
2023/10/25 09:56:08;;;;;;;4.25;0.93;;;9.80;99.90;;;;;;5032611;28;20022;-75
2023/10/25 09:58:35;;;;;;;3.67;1.50;;;9.80;99.90;;;;;;5033766;28;20029;-76
2023/10/25 10:01:06;;;;;;;6.18;1.10;;;9.80;99.90;;;;;;5033540;28;20028;-75
2023/10/25 10:03:37;;;;;;;3.33;0.98;;;9.90;99.90;;;;;;5033674;28;20101;-76
2023/10/25 10:06:31;;;;;;;5.80;1.45;;;9.90;99.90;;;;;;5033657;28;20489;-76
2023/10/25 10:09:10;;;;;;;4.43;1.55;;;9.90;99.90;;;;;;5032232;28;20029;-76
2023/10/25 10:11:39;;;;;;;2.33;0.80;;;9.90;99.90;;;;;;5034311;28;20053;-77
2023/10/25 10:14:28;;;;;;;5.07;1.40;;;9.90;99.90;;;;;;5033084;28;20020;-76
2023/10/25 10:16:58;;;;;;;8.75;1.30;;;9.90;99.90;;;;;;5032661;28;20013;-77
2023/10/25 10:19:24;;;;;;;5.38;0.77;;;9.90;99.90;;;;;;5032999;28;20469;-77
2023/10/25 10:22:11;;;;;;;4.15;0.93;;;9.90;99.90;;;;;;5032800;28;20074;-76
2023/10/25 10:24:53;;;;;;;1.95;0.98;;;9.90;99.90;;;;;;5034404;28;20026;-77
2023/10/25 10:27:23;;;;;;;7.68;1.00;;;10.00;99.90;;;;;;5032586;28;20018;-77
2023/10/25 10:29:49;;;;;;;5.80;1.15;;;10.00;99.90;;;;;;5033761;28;20076;-77
2023/10/25 10:32:17;;;;;;;6.50;0.98;;;10.00;99.90;;;;;;5034206;28;20013;-76
2023/10/25 10:34:47;;;;;;;3.37;1.10;;;10.00;99.90;;;;;;5033136;28;20013;-77
2023/10/25 10:37:19;;;;;;;10.82;1.73;;;10.10;99.90;;;;;;5035801;28;20018;-78
2023/10/25 10:40:03;;;;;;;6.72;1.20;;;10.00;99.90;;;;;;5034374;28;20071;-77
2023/10/25 10:42:29;;;;;;;2.97;1.38;;;10.10;99.90;;;;;;5032663;28;20025;-76
2023/10/25 10:45:02;;;;;;;2.97;1.10;;;10.10;99.90;;;;;;5032892;28;20037;-77
2023/10/25 10:47:51;;;;;;;4.75;1.15;;;10.10;99.90;;;;;;5032870;28;20033;-77
2023/10/25 10:50:22;;;;;;;2.08;0.80;;;10.20;99.90;;;;;;5033896;28;20409;-77
2023/10/25 10:52:50;;;;;;;5.53;1.30;;;10.20;99.90;;;;;;5032955;28;20022;-76
2023/10/25 10:55:20;;;;;;;3.10;1.38;;;10.30;99.90;;;;;;5033662;28;20027;-77
2023/10/25 10:57:46;;;;;;;3.35;1.20;;;10.30;99.90;;;;;;5033736;28;20493;-77
2023/10/25 11:00:22;;;;;;;13.77;1.50;;;10.30;99.90;;;;;;5034243;28;20032;-77
2023/10/25 11:02:49;;;;;;;5.38;2.17;;;10.40;99.90;;;;;;5032266;28;20517;-77
2023/10/25 11:05:16;;;;;;;7.75;2.15;;;10.40;99.90;;;;;;5033553;28;20567;-77
2023/10/25 11:07:42;;;;;;;9.23;1.45;;;10.40;99.90;;;;;;5033735;28;20029;-77
2023/10/25 11:10:09;;;;;;;6.25;1.60;;;10.50;99.90;;;;;;5032864;28;20478;-77
2023/10/25 11:12:34;;;;;;;4.20;1.83;;;10.50;99.90;;;;;;5033371;28;20426;-77
2023/10/25 11:15:04;;;;;;;3.72;1.35;;;10.50;99.90;;;;;;5033530;28;20060;-77
2023/10/25 11:17:31;;;;;;;7.90;2.35;;;10.50;99.90;;;;;;5033375;28;20018;-77
2023/10/25 11:19:56;;;;;;;4.45;1.20;;;11.40;99.90;;;;;;5033329;28;20057;-77
2023/10/25 11:22:22;;;;;;;3.47;1.00;;;10.50;99.90;;;;;;5034787;28;20487;-77
2023/10/25 11:24:50;;;;;;;3.10;1.27;;;10.60;99.90;;;;;;5036004;28;20388;-77
2023/10/25 11:27:15;;;;;;;5.40;1.50;;;10.50;99.90;;;;;;5035307;28;20013;-77
2023/10/25 11:29:41;;;;;;;6.03;1.45;;;10.60;99.90;;;;;;5035567;28;20473;-77
2023/10/25 11:32:11;;;;;;;8.48;2.08;;;10.60;99.90;;;;;;5037150;28;20439;-76
2023/10/25 11:34:39;;;;;;;8.75;2.55;;;10.60;99.90;;;;;;5035716;28;20030;-77
2023/10/25 11:37:06;;;;;;;3.47;2.00;;;10.60;99.90;;;;;;5035527;28;20018;-76
2023/10/25 11:39:35;;;;;;;8.10;1.40;;;10.60;99.90;;;;;;5036507;28;20021;-76
2023/10/25 11:42:01;;;;;;;;;;;11.10;99.90;;;;;;5035896;28;20025;-77
2023/10/25 11:44:27;;;;;;;5.35;1.50;;;10.60;99.90;;;;;;5035623;28;20309;-76
2023/10/25 11:46:58;;;;;;;5.35;1.90;;;10.50;99.90;;;;;;5036723;28;20075;-77
2023/10/25 11:49:24;;;;;;;8.48;1.52;;;10.90;99.90;;;;;;5036866;28;20381;-77
2023/10/25 11:51:52;;;;;;;5.70;1.65;;;10.50;99.90;;;;;;5036478;28;20113;-77
2023/10/25 11:54:18;;;;;;;3.97;1.30;;;10.50;99.90;;;;;;5036621;28;20072;-76
2023/10/25 11:56:44;;;;;;;6.35;1.45;;;10.50;99.90;;;;;;5036341;28;20025;-76
2023/10/25 11:59:09;;;;;;;5.13;2.08;;;10.50;99.90;;;;;;5035198;28;20026;-76
2023/10/25 12:01:35;;;;;;;9.13;1.58;;;10.50;99.90;;;;;;5035909;28;20018;-76
2023/10/25 12:04:00;;;;;;;4.80;2.03;;;10.50;99.90;;;;;;5036198;28;20029;-76
2023/10/25 12:06:26;;;;;;;6.97;2.13;;;10.50;99.90;;;;;;5036386;28;20033;-76
2023/10/25 12:08:51;;;;;;;3.47;1.75;;;10.30;99.90;;;;;;5034991;28;20108;-76
2023/10/25 12:11:17;;;;;;;5.45;2.53;;;10.40;99.90;;;;;;5036606;28;20030;-76
2023/10/25 12:13:43;;;;;;;3.00;1.85;;;10.50;99.90;;;;;;5034894;28;20024;-76
2023/10/25 12:16:09;;;;;;;7.82;2.10;;;10.50;99.90;;;;;;5036322;28;20025;-76
2023/10/25 12:18:36;;;;;;;3.25;1.77;;;10.50;99.90;;;;;;5035716;28;20113;-75
2023/10/25 12:21:05;;;;;;;8.30;2.20;;;10.50;99.90;;;;;;5034611;28;20477;-76
2023/10/25 12:23:32;;;;;;;3.65;1.73;;;10.50;99.90;;;;;;5035928;28;20104;-76
2023/10/25 12:25:58;;;;;;;7.68;2.42;;;10.50;99.90;;;;;;5036167;28;20025;-76
2023/10/25 12:28:25;;;;;;;7.93;2.90;;;10.50;99.90;;;;;;5034494;28;20091;-76
2023/10/25 12:30:50;;;;;;;6.97;1.98;;;10.60;99.90;;;;;;5035722;28;20059;-76
2023/10/25 12:33:17;;;;;;;7.13;2.05;;;10.60;99.90;;;;;;5035237;28;20083;-76
2023/10/25 12:35:43;;;;;;;7.53;2.63;;;10.60;99.90;;;;;;5034346;28;20048;-75
2023/10/25 12:38:09;;;;;;;4.38;2.08;;;10.60;99.90;;;;;;5035872;28;20097;-76
2023/10/25 12:40:34;;;;;;;6.95;2.67;;;10.60;99.90;;;;;;5034455;28;20028;-76
2023/10/25 12:43:00;;;;;;;5.55;2.22;;;10.60;99.90;;;;;;5035386;28;20025;-76
2023/10/25 12:45:26;;;;;;;6.57;1.88;;;10.60;99.90;;;;;;5035690;28;20440;-76
2023/10/25 12:47:52;;;;;;;6.28;2.28;;;10.60;99.90;;;;;;5035415;28;20025;-76
2023/10/25 12:50:18;;;;;;;6.88;1.95;;;10.60;99.90;;;;;;5035319;28;20037;-77
2023/10/25 12:52:46;;;;;;;5.00;1.80;;;10.60;99.90;;;;;;5034086;28;20393;-77
2023/10/25 12:55:11;;;;;;;5.40;1.33;;;10.60;99.90;;;;;;5035431;28;20533;-76